Terminal Aerodrome Forecast
Issued by NWS

Home | Current Version | Previous Version | Text Only | Print | Product List | Glossary On
Versions: 1 2 3 4 5 6 7 8 9 10 11 12 13 14 15 16 17 18 19 20 21 22 23 24 25 26 27 28 29 30 31
000
FTUS41 KBOX 210921 AAB
TAFACK
TAF AMD
KACK 210921Z 2109/2206 15012KT 1/4SM -SHRA FG VV002
     FM211400 19014KT 1SM BR BKN003
     FM211700 23014KT P6SM BKN250
     FM220400 26009KT P6SM FEW250=

USA.gov is the U.S. government's official web portal to all federal, state and local government web resources and services.